createdAt,value
2018-04-22T00:01:44.443Z,3.20
2018-04-22T00:04:19.040Z,2.03
2018-04-22T00:06:54.548Z,2.37
2018-04-22T00:09:29.822Z,2.50
2018-04-22T00:12:04.224Z,1.40
2018-04-22T00:14:38.552Z,2.63
2018-04-22T00:17:13.180Z,1.73
2018-04-22T00:19:47.649Z,6.37
2018-04-22T00:22:22.129Z,1.23
2018-04-22T00:24:57.252Z,3.63
2018-04-22T00:27:31.688Z,2.67
2018-04-22T00:30:06.109Z,2.07
2018-04-22T00:32:40.743Z,2.50
2018-04-22T00:35:15.024Z,2.57
2018-04-22T00:37:49.437Z,1.90
2018-04-22T00:40:23.688Z,1.80
2018-04-22T00:42:58.417Z,1.90
2018-04-22T00:45:33.558Z,1.80
2018-04-22T00:48:08.083Z,3.13
2018-04-22T00:53:21.418Z,4.50
2018-04-22T00:55:55.852Z,2.00
2018-04-22T00:58:30.581Z,1.33
2018-04-22T01:01:04.956Z,1.77
2018-04-22T01:03:39.808Z,1.27
2018-04-22T01:06:14.148Z,1.87
2018-04-22T01:08:48.480Z,1.77
2018-04-22T01:11:23.172Z,1.77
2018-04-22T01:13:57.989Z,1.73
2018-04-22T01:16:32.441Z,1.50
2018-04-22T01:19:06.821Z,1.57
2018-04-22T01:21:41.393Z,2.43
2018-04-22T01:24:15.876Z,1.40
2018-04-22T01:26:50.137Z,1.80
2018-04-22T01:29:24.508Z,2.20
2018-04-22T01:31:58.870Z,2.50
2018-04-22T01:34:33.397Z,2.97
2018-04-22T01:37:08.216Z,2.97
2018-04-22T01:39:42.726Z,3.43
2018-04-22T01:42:17.148Z,2.67
2018-04-22T01:44:52.388Z,1.57
2018-04-22T01:47:27.742Z,2.40
2018-04-22T01:50:02.020Z,2.27
2018-04-22T01:52:36.492Z,1.90
2018-04-22T01:55:10.916Z,1.67
2018-04-22T01:57:45.301Z,4.80
2018-04-22T02:00:20.505Z,1.50
2018-04-22T02:02:54.885Z,1.40
2018-04-22T02:05:29.409Z,2.73
2018-04-22T02:08:03.712Z,1.70
2018-04-22T02:10:38.703Z,1.97
2018-04-22T02:13:13.084Z,2.20
2018-04-22T02:15:47.505Z,2.23
2018-04-22T02:18:21.820Z,3.53
2018-04-22T02:20:56.117Z,2.60
2018-04-22T02:23:30.539Z,3.93
2018-04-22T02:26:05.001Z,2.83
2018-04-22T02:28:39.500Z,1.37
2018-04-22T02:31:14.032Z,2.43
2018-04-22T02:33:48.649Z,2.37
2018-04-22T02:36:22.968Z,2.80
2018-04-22T02:38:57.597Z,2.67
2018-04-22T02:41:33.723Z,1.40
2018-04-22T02:44:09.691Z,2.50
2018-04-22T02:46:45.643Z,1.73
2018-04-22T02:49:22.411Z,1.97
2018-04-22T02:52:00.185Z,3.43
2018-04-22T02:54:35.652Z,1.97
2018-04-22T02:57:11.544Z,2.00
2018-04-22T02:59:46.658Z,1.40
2018-04-22T03:02:21.785Z,3.07
2018-04-22T03:04:57.156Z,3.93
2018-04-22T03:07:31.546Z,4.13
2018-04-22T03:10:05.933Z,3.10
2018-04-22T03:12:40.369Z,6.20
2018-04-22T03:15:15.528Z,1.50
2018-04-22T03:17:50.571Z,1.40
2018-04-22T03:20:26.533Z,2.23
2018-04-22T03:23:00.960Z,2.03
2018-04-22T03:25:35.333Z,2.60
2018-04-22T03:28:09.616Z,3.13
2018-04-22T03:30:44.461Z,6.40
2018-04-22T03:33:18.964Z,5.33
2018-04-22T03:35:54.725Z,5.27
2018-04-22T03:38:29.247Z,4.53
2018-04-22T03:41:04.037Z,5.47
2018-04-22T03:43:38.300Z,4.67
2018-04-22T03:46:12.579Z,4.33
2018-04-22T03:48:47.728Z,2.03
2018-04-22T03:51:23.408Z,3.10
2018-04-22T03:53:57.914Z,3.57
2018-04-22T03:56:32.324Z,3.17
2018-04-22T03:59:06.961Z,3.23
2018-04-22T04:01:42.096Z,1.90
2018-04-22T04:04:16.504Z,2.83
2018-04-22T04:06:51.141Z,3.67
2018-04-22T04:09:26.128Z,1.73
2018-04-22T04:12:00.392Z,4.20
2018-04-22T04:14:35.136Z,3.60
2018-04-22T04:17:10.412Z,6.30
2018-04-22T04:19:56.757Z,4.40
2018-04-22T04:22:42.927Z,4.23
2018-04-22T04:28:16.888Z,3.63
2018-04-22T04:30:51.316Z,6.87
2018-04-22T04:33:26.529Z,4.40
2018-04-22T04:36:00.873Z,4.27
2018-04-22T04:38:35.996Z,5.23
2018-04-22T04:41:10.412Z,8.03
2018-04-22T04:43:45.134Z,3.83
2018-04-22T04:46:19.420Z,6.97
2018-04-22T04:48:54.776Z,4.03
2018-04-22T04:51:29.233Z,2.73
2018-04-22T04:54:04.151Z,1.73
2018-04-22T04:56:39.237Z,4.03
2018-04-22T04:59:13.604Z,4.60
2018-04-22T05:01:48.832Z,4.23
2018-04-22T05:04:23.263Z,3.43
2018-04-22T05:06:59.204Z,4.10
2018-04-22T05:09:35.344Z,5.80
2018-04-22T05:12:11.201Z,4.53
2018-04-22T05:14:47.375Z,2.30
2018-04-22T05:17:22.116Z,1.77
2018-04-22T05:19:57.168Z,3.40
2018-04-22T05:22:31.804Z,7.37
2018-04-22T05:25:06.331Z,4.07
2018-04-22T05:27:40.803Z,7.90
2018-04-22T05:30:15.917Z,10.20
2018-04-22T05:32:50.280Z,9.20
2018-04-22T05:35:26.405Z,14.40
2018-04-22T05:38:02.306Z,13.43
2018-04-22T05:40:36.745Z,10.23
2018-04-22T05:43:11.169Z,8.33
2018-04-22T05:45:45.664Z,9.77
2018-04-22T05:48:20.481Z,8.00
2018-04-22T05:50:55.636Z,7.97
2018-04-22T05:53:30.159Z,6.30
2018-04-22T05:56:05.060Z,8.87
2018-04-22T05:58:40.708Z,10.47
2018-04-22T06:01:15.077Z,7.70
2018-04-22T06:03:49.500Z,8.73
2018-04-22T06:06:23.808Z,10.67
2018-04-22T06:08:58.834Z,12.67
2018-04-22T06:11:34.734Z,7.80
2018-04-22T06:14:10.648Z,5.97
2018-04-22T06:16:46.612Z,8.07
2018-04-22T06:19:22.558Z,9.20
2018-04-22T06:21:58.826Z,7.47
2018-04-22T06:24:33.568Z,7.67
2018-04-22T06:27:08.308Z,8.03
2018-04-22T06:29:42.972Z,8.17
2018-04-22T06:32:17.217Z,7.43
2018-04-22T06:34:51.508Z,8.40
2018-04-22T06:37:25.963Z,10.20
2018-04-22T06:40:01.100Z,9.93
2018-04-22T06:42:35.508Z,8.27
2018-04-22T06:45:09.966Z,7.80
2018-04-22T06:47:44.476Z,9.63
2018-04-22T06:50:19.597Z,7.83
2018-04-22T06:52:53.864Z,8.97
2018-04-22T06:55:28.461Z,11.80
2018-04-22T06:58:02.716Z,13.13
2018-04-22T07:00:37.873Z,9.17
2018-04-22T07:03:13.037Z,11.07
2018-04-22T07:05:47.576Z,8.53
2018-04-22T07:08:22.688Z,9.57
2018-04-22T07:13:35.730Z,14.97
2018-04-22T07:16:11.796Z,11.13
2018-04-22T07:18:47.533Z,11.30
2018-04-22T07:21:22.393Z,8.67
2018-04-22T07:23:57.549Z,10.07
2018-04-22T07:26:32.745Z,8.90
2018-04-22T07:29:08.508Z,10.50
2018-04-22T07:31:42.733Z,11.17
2018-04-22T07:34:17.009Z,8.43
2018-04-22T07:36:52.195Z,12.07
2018-04-22T07:39:26.453Z,8.80
2018-04-22T07:42:00.952Z,10.87
2018-04-22T07:44:35.568Z,10.97
2018-04-22T07:47:09.965Z,9.10
2018-04-22T07:49:45.128Z,10.27
2018-04-22T07:52:21.181Z,11.03
2018-04-22T07:54:56.196Z,12.93
2018-04-22T07:57:30.624Z,10.27
2018-04-22T08:00:04.929Z,10.93
2018-04-22T08:02:39.686Z,13.37
2018-04-22T08:05:14.698Z,12.37
2018-04-22T08:07:49.140Z,9.10
2018-04-22T08:10:23.656Z,12.30
2018-04-22T08:12:57.977Z,7.17
2018-04-22T08:15:32.253Z,14.73
2018-04-22T08:18:07.007Z,15.70
2018-04-22T08:20:41.513Z,16.07
2018-04-22T08:23:15.760Z,9.50
2018-04-22T08:25:50.043Z,12.67
2018-04-22T08:28:24.363Z,15.80
2018-04-22T08:30:58.616Z,16.97
2018-04-22T08:33:32.940Z,12.17
2018-04-22T08:36:07.252Z,11.63
2018-04-22T08:38:41.655Z,12.60
2018-04-22T08:41:15.969Z,13.83
2018-04-22T08:43:51.997Z,11.20
2018-04-22T08:46:26.265Z,12.50
2018-04-22T08:49:00.608Z,15.80
2018-04-22T08:51:34.915Z,15.03
2018-04-22T08:54:09.328Z,15.97
2018-04-22T08:56:44.642Z,17.03
2018-04-22T08:59:18.888Z,16.30
2018-04-22T09:01:53.884Z,12.13
2018-04-22T09:07:06.848Z,16.23
2018-04-22T09:09:41.487Z,16.90
2018-04-22T09:12:15.884Z,15.90
2018-04-22T09:14:51.720Z,17.47
2018-04-22T09:17:27.560Z,15.00
2018-04-22T09:20:04.192Z,15.80
2018-04-22T09:22:40.226Z,15.93
2018-04-22T09:25:16.208Z,17.87
2018-04-22T09:27:52.115Z,14.10
2018-04-22T09:30:27.961Z,18.47
2018-04-22T09:33:03.121Z,17.67
2018-04-22T09:35:37.692Z,15.50
2018-04-22T09:38:12.172Z,16.70
2018-04-22T09:40:46.612Z,20.47
2018-04-22T09:43:21.144Z,17.27
2018-04-22T09:45:55.583Z,20.43
2018-04-22T09:48:30.092Z,18.87
2018-04-22T09:51:05.428Z,14.50
2018-04-22T09:53:40.932Z,9.27
2018-04-22T09:56:16.792Z,16.40
2018-04-22T09:58:51.158Z,20.03
2018-04-22T10:01:43.464Z,13.13
2018-04-22T10:04:20.836Z,15.57
2018-04-22T10:06:56.299Z,11.77
2018-04-22T10:09:30.636Z,12.63
2018-04-22T10:12:06.549Z,17.93
2018-04-22T10:14:42.364Z,15.50
2018-04-22T10:17:16.776Z,10.90
2018-04-22T10:19:51.395Z,12.00
2018-04-22T10:22:25.972Z,13.60
2018-04-22T10:25:00.232Z,12.27
2018-04-22T10:27:34.896Z,16.00
2018-04-22T10:30:09.312Z,12.43
2018-04-22T10:32:43.833Z,22.37
2018-04-22T10:35:18.198Z,22.80
2018-04-22T10:37:52.628Z,18.17
2018-04-22T10:40:27.172Z,14.57
2018-04-22T10:43:01.708Z,14.63
2018-04-22T10:45:36.020Z,17.87
2018-04-22T10:48:11.986Z,19.77
2018-04-22T10:50:48.049Z,18.17
2018-04-22T10:53:23.988Z,19.00
2018-04-22T10:56:00.157Z,16.67
2018-04-22T10:58:34.791Z,11.87
2018-04-22T11:01:09.464Z,14.93
2018-04-22T11:03:43.916Z,12.03
2018-04-22T11:06:18.718Z,11.47
2018-04-22T11:08:54.583Z,11.20
2018-04-22T11:11:29.744Z,13.60
2018-04-22T11:14:04.329Z,12.40
2018-04-22T11:16:38.835Z,10.73
2018-04-22T11:19:13.308Z,15.77
2018-04-22T11:21:47.812Z,15.00
2018-04-22T11:24:22.156Z,14.17
2018-04-22T11:26:57.678Z,10.17
2018-04-22T11:29:32.284Z,17.30
2018-04-22T11:32:07.564Z,10.23
2018-04-22T11:34:42.600Z,15.07
2018-04-22T11:37:16.929Z,13.40
2018-04-22T11:39:51.652Z,9.73
2018-04-22T11:42:26.250Z,15.80
2018-04-22T11:45:00.973Z,15.30
2018-04-22T11:47:35.416Z,15.27
2018-04-22T11:50:10.040Z,11.10
2018-04-22T11:52:44.468Z,15.33
2018-04-22T11:55:19.084Z,9.63
2018-04-22T11:57:53.376Z,12.47
2018-04-22T12:00:27.795Z,8.53
2018-04-22T12:03:02.137Z,9.10
2018-04-22T12:05:36.876Z,9.40
2018-04-22T12:08:11.280Z,7.73
2018-04-22T12:10:45.814Z,14.40
2018-04-22T12:13:21.929Z,7.00
2018-04-22T12:15:57.772Z,11.03
2018-04-22T12:18:32.548Z,8.57
2018-04-22T12:21:08.481Z,8.23
2018-04-22T12:23:43.763Z,7.77
2018-04-22T12:26:18.135Z,7.97
2018-04-22T12:28:53.030Z,9.00
2018-04-22T12:31:27.504Z,8.30
2018-04-22T12:34:03.256Z,6.43
2018-04-22T12:36:41.092Z,9.73
2018-04-22T12:39:15.504Z,8.17
2018-04-22T12:41:49.960Z,7.37
2018-04-22T12:44:24.370Z,6.33
2018-04-22T12:46:58.768Z,8.57
2018-04-22T12:49:33.331Z,9.60
2018-04-22T12:52:07.758Z,8.27
2018-04-22T12:54:42.028Z,8.73
2018-04-22T12:57:16.553Z,9.33
2018-04-22T12:59:53.311Z,10.70
2018-04-22T13:02:29.353Z,7.03
2018-04-22T13:05:05.578Z,9.23
2018-04-22T13:07:39.953Z,13.13
2018-04-22T13:10:16.609Z,14.03
2018-04-22T13:12:51.154Z,11.80
2018-04-22T13:15:25.492Z,9.73
2018-04-22T13:17:59.832Z,10.10
2018-04-22T13:20:34.217Z,8.37
2018-04-22T13:23:08.536Z,6.87
2018-04-22T13:25:43.358Z,13.80
2018-04-22T13:28:17.801Z,8.57
2018-04-22T13:30:53.721Z,6.37
2018-04-22T13:33:28.560Z,15.80
2018-04-22T13:36:02.800Z,9.67
2018-04-22T13:38:37.125Z,7.33
2018-04-22T13:41:11.541Z,8.03
2018-04-22T13:43:46.076Z,7.57
2018-04-22T13:46:20.493Z,6.87
2018-04-22T13:48:54.808Z,10.00
2018-04-22T13:51:29.325Z,8.63
2018-04-22T13:54:05.284Z,9.37
2018-04-22T13:56:39.692Z,6.03
2018-04-22T13:59:14.126Z,8.53
2018-04-22T14:01:48.713Z,9.30
2018-04-22T14:04:24.009Z,10.27
2018-04-22T14:06:58.499Z,10.47
2018-04-22T14:09:32.892Z,8.00
2018-04-22T14:12:07.327Z,14.23
2018-04-22T14:14:42.361Z,8.43
2018-04-22T14:17:16.778Z,10.50
2018-04-22T14:19:51.107Z,10.93
2018-04-22T14:22:25.623Z,14.30
2018-04-22T14:25:00.060Z,9.43
2018-04-22T14:27:34.506Z,8.33
2018-04-22T14:30:08.896Z,10.27
2018-04-22T14:32:43.432Z,9.80
2018-04-22T14:35:17.854Z,10.23
2018-04-22T14:37:52.341Z,8.10
2018-04-22T14:40:27.480Z,12.23
2018-04-22T14:43:01.928Z,6.40
2018-04-22T14:45:48.325Z,7.60
2018-04-22T14:48:22.630Z,6.97
2018-04-22T14:50:57.168Z,9.00
2018-04-22T14:53:31.678Z,10.43
2018-04-22T14:56:06.216Z,9.60
2018-04-22T14:58:40.519Z,10.73
2018-04-22T15:01:14.772Z,11.83
2018-04-22T15:03:49.869Z,7.60
2018-04-22T15:06:24.513Z,13.33
2018-04-22T15:08:58.904Z,7.87
2018-04-22T15:11:33.332Z,11.67
2018-04-22T15:14:07.748Z,8.70
2018-04-22T15:16:42.238Z,9.90
2018-04-22T15:19:16.928Z,8.90
2018-04-22T15:21:51.183Z,10.37
2018-04-22T15:24:25.877Z,8.40
2018-04-22T15:27:00.192Z,8.77
2018-04-22T15:29:34.501Z,3.90
2018-04-22T15:32:09.640Z,3.90
2018-04-22T15:34:44.168Z,4.23
2018-04-22T15:37:18.565Z,7.60
2018-04-22T15:39:52.937Z,6.03
2018-04-22T15:42:27.332Z,4.07
2018-04-22T15:45:01.625Z,5.57
2018-04-22T15:47:36.140Z,5.33
2018-04-22T15:50:10.778Z,6.30
2018-04-22T15:52:44.996Z,3.50
2018-04-22T15:55:20.130Z,4.60
2018-04-22T15:57:55.292Z,6.70
2018-04-22T16:00:30.408Z,6.80
2018-04-22T16:03:04.833Z,10.00
2018-04-22T16:05:39.083Z,3.67
2018-04-22T16:08:13.408Z,6.60
2018-04-22T16:10:47.788Z,7.87
2018-04-22T16:13:22.224Z,10.67
2018-04-22T16:15:56.829Z,9.13
2018-04-22T16:18:31.372Z,4.93
2018-04-22T16:21:06.200Z,6.00
2018-04-22T16:23:41.305Z,7.97
2018-04-22T16:26:15.763Z,6.67
2018-04-22T16:28:50.383Z,8.23
2018-04-22T16:31:24.712Z,5.63
2018-04-22T16:34:00.140Z,5.27
2018-04-22T16:36:34.780Z,5.47
2018-04-22T16:39:09.984Z,5.50
2018-04-22T16:41:44.536Z,7.10
2018-04-22T16:44:19.541Z,5.20
2018-04-22T16:46:54.096Z,6.47
2018-04-22T16:49:28.548Z,7.17
2018-04-22T16:52:02.920Z,4.73
2018-04-22T16:54:37.472Z,4.03
2018-04-22T16:57:11.897Z,3.67
2018-04-22T16:59:46.312Z,3.90
2018-04-22T17:02:20.769Z,4.33
2018-04-22T17:04:55.109Z,4.67
2018-04-22T17:07:29.449Z,4.10
2018-04-22T17:10:03.764Z,3.63
2018-04-22T17:12:38.204Z,3.97
2018-04-22T17:15:14.257Z,2.83
2018-04-22T17:17:48.569Z,3.20
2018-04-22T17:20:23.003Z,1.63
2018-04-22T17:22:58.012Z,3.13
2018-04-22T17:25:33.368Z,3.93
2018-04-22T17:28:07.627Z,5.70
2018-04-22T17:30:42.088Z,4.67
2018-04-22T17:33:16.476Z,2.43
2018-04-22T17:35:50.924Z,2.47
2018-04-22T17:38:25.354Z,2.30
2018-04-22T17:40:59.649Z,2.03
2018-04-22T17:43:34.008Z,4.43
2018-04-22T17:46:08.429Z,4.53
2018-04-22T17:48:43.048Z,3.00
2018-04-22T17:51:17.359Z,6.70
2018-04-22T17:53:52.658Z,2.77
2018-04-22T17:56:27.033Z,2.70
2018-04-22T17:59:01.473Z,3.40
2018-04-22T18:01:35.880Z,4.37
2018-04-22T18:04:10.269Z,3.60
2018-04-22T18:06:44.816Z,3.13
2018-04-22T18:09:19.825Z,4.10
2018-04-22T18:11:54.257Z,7.40
2018-04-22T18:14:28.767Z,6.50
2018-04-22T18:17:02.972Z,6.90
2018-04-22T18:19:37.271Z,3.97
2018-04-22T18:22:11.725Z,4.80
2018-04-22T18:24:46.133Z,5.30
2018-04-22T18:27:20.408Z,4.33
2018-04-22T18:29:54.780Z,4.20
2018-04-22T18:32:30.248Z,5.23
2018-04-22T18:35:04.612Z,4.20
2018-04-22T18:37:38.964Z,9.57
2018-04-22T18:40:14.280Z,5.00
2018-04-22T18:42:48.708Z,10.23
2018-04-22T18:45:23.273Z,3.23
2018-04-22T18:47:57.683Z,6.63
2018-04-22T18:50:32.052Z,11.07
2018-04-22T18:53:06.480Z,7.30
2018-04-22T18:55:40.756Z,3.97
2018-04-22T18:58:15.065Z,10.30
2018-04-22T19:00:49.488Z,4.60
2018-04-22T19:03:23.789Z,2.90
2018-04-22T19:05:58.113Z,4.80
2018-04-22T19:08:32.448Z,3.10
2018-04-22T19:11:06.705Z,4.23
2018-04-22T19:13:41.075Z,8.83
2018-04-22T19:16:15.372Z,6.30
2018-04-22T19:18:50.402Z,5.67
2018-04-22T19:21:24.773Z,3.03
2018-04-22T19:23:59.292Z,5.60
2018-04-22T19:26:33.624Z,5.40
2018-04-22T19:29:09.152Z,4.53
2018-04-22T19:31:44.157Z,6.60
2018-04-22T19:34:18.507Z,4.27
2018-04-22T19:36:52.793Z,5.50
2018-04-22T19:39:27.849Z,5.63
2018-04-22T19:42:02.170Z,3.97
2018-04-22T19:44:37.394Z,4.87
2018-04-22T19:47:11.836Z,3.20
2018-04-22T19:49:46.142Z,4.47
2018-04-22T19:52:20.555Z,9.00
2018-04-22T19:54:55.096Z,3.17
2018-04-22T19:57:29.598Z,4.90
2018-04-22T20:00:04.142Z,4.10
2018-04-22T20:02:38.573Z,3.53
2018-04-22T20:05:12.986Z,2.30
2018-04-22T20:07:47.713Z,4.67
2018-04-22T20:10:22.231Z,5.13
2018-04-22T20:12:56.433Z,4.27
2018-04-22T20:15:30.894Z,4.43
2018-04-22T20:18:05.196Z,2.70
2018-04-22T20:20:40.273Z,4.07
2018-04-22T20:23:14.644Z,2.90
2018-04-22T20:25:48.998Z,2.87
2018-04-22T20:28:23.380Z,3.70
2018-04-22T20:30:57.823Z,4.40
2018-04-22T20:33:32.425Z,3.33
2018-04-22T20:36:06.983Z,2.73
2018-04-22T20:38:41.404Z,4.07
2018-04-22T20:41:15.781Z,3.37
2018-04-22T20:43:50.199Z,4.30
2018-04-22T20:46:24.753Z,2.93
2018-04-22T20:48:59.113Z,2.60
2018-04-22T20:51:33.429Z,2.77
2018-04-22T20:54:09.109Z,2.33
2018-04-22T20:56:43.357Z,2.73
2018-04-22T20:59:17.840Z,3.57
2018-04-22T21:01:52.592Z,6.83
2018-04-22T21:04:26.890Z,4.10
2018-04-22T21:07:01.436Z,3.87
2018-04-22T21:09:35.748Z,5.50
2018-04-22T21:12:10.160Z,6.77
2018-04-22T21:14:44.501Z,2.80
2018-04-22T21:17:19.005Z,5.93
2018-04-22T21:19:53.312Z,3.80
2018-04-22T21:22:27.622Z,7.60
2018-04-22T21:25:02.011Z,5.47
2018-04-22T21:27:36.280Z,3.00
2018-04-22T21:30:10.708Z,5.43
2018-04-22T21:32:45.068Z,3.13
2018-04-22T21:35:19.360Z,5.73
2018-04-22T21:37:53.825Z,5.73
2018-04-22T21:40:28.478Z,6.20
2018-04-22T21:43:03.514Z,3.87
2018-04-22T21:45:38.076Z,2.43
2018-04-22T21:48:12.440Z,5.17
2018-04-22T21:50:46.773Z,4.50
2018-04-22T21:53:21.915Z,3.57
2018-04-22T21:55:56.301Z,3.97
2018-04-22T21:58:30.686Z,5.80
2018-04-22T22:01:05.092Z,3.07
2018-04-22T22:03:39.508Z,2.53
2018-04-22T22:06:14.517Z,6.03
2018-04-22T22:08:48.948Z,4.37
2018-04-22T22:11:23.972Z,3.10
2018-04-22T22:13:59.123Z,3.40
2018-04-22T22:16:34.496Z,2.80
2018-04-22T22:19:08.864Z,4.57
2018-04-22T22:21:43.429Z,4.00
2018-04-22T22:24:18.454Z,3.67
2018-04-22T22:26:53.676Z,4.40
2018-04-22T22:29:28.117Z,2.70
2018-04-22T22:32:02.591Z,4.17
2018-04-22T22:34:36.849Z,3.40
2018-04-22T22:37:13.076Z,3.70
2018-04-22T22:39:47.453Z,4.03
2018-04-22T22:42:21.978Z,5.17
2018-04-22T22:44:56.436Z,3.97
2018-04-22T22:47:30.894Z,5.40
2018-04-22T22:50:05.318Z,4.63
2018-04-22T22:52:39.724Z,3.40
2018-04-22T22:55:14.274Z,3.40
2018-04-22T22:57:48.817Z,2.33
2018-04-22T23:00:24.024Z,3.90
2018-04-22T23:02:58.356Z,5.07
2018-04-22T23:05:32.772Z,3.80
2018-04-22T23:08:07.200Z,2.70
2018-04-22T23:10:41.733Z,2.67
2018-04-22T23:13:16.100Z,3.70
2018-04-22T23:15:50.464Z,3.37
2018-04-22T23:18:24.881Z,2.47
2018-04-22T23:21:00.200Z,3.50
2018-04-22T23:23:34.524Z,2.73
2018-04-22T23:26:08.845Z,2.50
2018-04-22T23:28:43.378Z,3.67
2018-04-22T23:31:17.672Z,3.23
2018-04-22T23:33:52.084Z,2.40
2018-04-22T23:36:26.539Z,3.30
2018-04-22T23:39:00.824Z,4.13
2018-04-22T23:41:35.187Z,4.97
2018-04-22T23:44:09.696Z,2.67
2018-04-22T23:46:43.985Z,2.67
2018-04-22T23:49:18.304Z,3.37
2018-04-22T23:51:52.752Z,2.90
2018-04-22T23:54:27.152Z,3.73
2018-04-22T23:57:01.697Z,2.60
2018-04-22T23:59:36.121Z,3.33
